Latest Weather Observations for Condobolin Airport

IDN60801

Issued at 8:32 am EDT Sunday 4 December 2016 (issued every 30 minutes, with the page automatically refreshed every 10 minutes)

About weather observations | Map of weather stations | Latest weather observations for NSW | Other Formats
Station Details ID: 050137 Name: CONDOBOLIN AIRPORT AWS Lat: -33.07 Lon: 147.21 Height: 192.6 m
Data from the previous 72 hours. | See also: Recent months at Condobolin Airport
Date/Time
EDT
Temp
°C
App
Temp
°C
Dew
Point
°C
Rel
Hum
%
Delta-T
°C
Wind Press
QNH
hPa
Press
MSL
hPa
Rain since
9am
mm
Dir  Spd
km/h
Gust
km/h
Spd
kts
Gust
kts
04/08:30am 27.1 27.4 15.1 47 7.3 ENE 7 11 4 6 1013.2 1012.3 0.0
04/08:00am 24.9 24.9 13.5 49 6.7 ESE 6 7 3 4 1013.1 1012.2 0.0
04/07:30am 23.4 22.8 12.4 50 6.3 SE 7 9 4 5 1012.9 1012.0 0.0
04/07:00am 19.6 20.7 13.5 68 3.5 CALM 0 0 0 0 1012.8 1011.9 0.0
04/06:30am 18.5 19.3 12.7 69 3.3 CALM 0 0 0 0 1012.7 1011.8 0.0
04/06:00am 17.8 18.4 12.0 69 3.2 CALM 0 0 0 0 1012.1 1011.2 0.0
04/05:30am 16.9 17.0 11.4 70 3.0 NE 2 6 1 3 1012.0 1011.1 0.0
04/05:00am 16.7 15.6 10.8 68 3.2 E 7 9 4 5 1011.9 1011.0 0.0
04/04:30am 17.6 17.0 11.6 68 3.3 NE 6 9 3 5 1011.9 1011.0 0.0
04/04:00am 17.6 18.0 11.2 66 3.5 CALM 0 0 0 0 1011.8 1010.9 0.0
04/03:30am 18.3 18.5 10.7 61 4.1 CALM 0 0 0 0 1011.6 1010.7 0.0
04/03:00am 18.7 19.0 10.8 60 4.3 CALM 0 0 0 0 1011.6 1010.7 0.0
04/02:30am 18.8 19.2 11.1 61 4.2 CALM 0 0 0 0 1011.5 1010.6 0.0
04/02:00am 19.1 19.3 10.6 58 4.6 CALM 0 0 0 0 1011.9 1011.0 0.0
04/01:30am 19.6 19.7 10.3 55 5.1 CALM 0 0 0 0 1012.2 1011.3 0.0
04/01:00am 20.6 19.4 10.4 52 5.6 N 7 9 4 5 1012.3 1011.4 0.0
04/12:30am 21.9 21.1 11.0 50 6.1 ENE 6 9 3 5 1012.5 1011.6 0.0
04/12:00am 22.0 22.3 10.8 49 6.2 CALM 0 0 0 0 1012.6 1011.7 0.0
 
Date/Time
EDT
Temp
°C
App
Temp
°C
Dew
Point
°C
Rel
Hum
%
Delta-T
°C
Wind Press
QNH
hPa
Press
MSL
hPa
Rain since
9am
mm
Dir  Spd
km/h
Gust
km/h
Spd
kts
Gust
kts
03/11:30pm 21.5 21.7 10.6 50 6.0 CALM 0 0 0 0 1012.6 1011.7 0.0
03/11:00pm 21.9 21.4 9.4 45 6.8 ESE 2 7 1 4 1012.4 1011.5 0.0
03/10:30pm 22.9 22.3 10.3 45 7.0 E 4 7 2 4 1012.4 1011.5 0.0
03/10:00pm 23.3 21.7 7.8 37 8.2 SSE 6 7 3 4 1012.2 1011.3 0.0
03/09:30pm 25.9 24.2 7.5 31 9.8 WSW 6 9 3 5 1012.0 1011.1 0.0
03/09:00pm 28.2 25.6 6.3 25 11.6 SSW 9 11 5 6 1011.6 1010.7 0.0
03/08:30pm 29.1 26.6 4.6 21 12.7 S 7 9 4 5 1011.3 1010.4 0.0
03/08:00pm 31.5 28.9 4.3 18 14.2 SSW 7 11 4 6 1011.1 1010.2 0.0
03/07:30pm 33.9 30.1 3.7 15 15.9 SSW 13 19 7 10 1010.7 1009.8 0.0
03/07:00pm 35.3 30.7 3.8 14 16.7 SW 17 24 9 13 1010.4 1009.5 0.0
03/06:30pm 36.1 30.7 4.4 14 17.0 SW 22 32 12 17 1010.2 1009.3 0.0
03/06:00pm 36.4 30.4 3.6 13 17.5 SW 24 30 13 16 1010.0 1009.1 0.0
03/05:30pm 37.0 32.7 5.1 14 17.4 SW 17 33 9 18 1010.1 1009.2 0.0
03/05:00pm 37.1 31.5 5.2 14 17.5 SW 24 35 13 19 1010.1 1009.2 0.0
03/04:30pm 36.8 31.5 4.9 14 17.3 WSW 22 32 12 17 1010.4 1009.5 0.0
03/04:00pm 38.0 33.3 5.9 14 17.8 W 20 32 11 17 1010.4 1009.5 0.0
03/03:30pm 36.9 33.9 6.0 15 17.1 WNW 11 20 6 11 1010.7 1009.8 0.0
03/03:00pm 36.7 31.6 5.9 15 17.0 WSW 22 32 12 17 1011.0 1010.1 0.0
03/02:30pm 36.8 32.3 5.9 15 17.1 WSW 19 37 10 20 1011.1 1010.2 0.0
03/02:00pm 36.7 33.5 6.8 16 16.7 WNW 13 26 7 14 1011.5 1010.6 0.0
03/01:30pm 35.5 30.9 5.8 16 16.3 WSW 19 30 10 16 1011.8 1010.9 0.0
03/01:00pm 35.6 31.6 6.8 17 16.0 SSW 17 26 9 14 1011.9 1011.0 0.0
03/12:30pm 34.8 31.1 6.2 17 15.7 W 15 26 8 14 1012.3 1011.4 0.0
03/12:00pm 34.6 31.4 6.8 18 15.4 WSW 13 28 7 15 1012.6 1011.7 0.0
03/11:30am 34.1 30.8 6.4 18 15.2 W 13 20 7 11 1012.8 1011.9 0.0
03/11:00am 32.7 29.3 6.1 19 14.4 WSW 13 20 7 11 1013.0 1012.1 0.0
03/10:30am 32.2 29.7 6.4 20 14.0 WNW 9 17 5 9 1013.1 1012.2 0.0
03/10:00am 31.8 29.6 6.1 20 13.9 SW 7 13 4 7 1013.1 1012.2 0.0
03/09:30am 30.9 29.2 7.4 23 12.9 WNW 6 11 3 6 1013.3 1012.4 0.0
03/09:00am 29.3 27.5 7.2 25 12.0 W 6 11 3 6 1013.1 1012.2 0.0
03/08:30am 28.0 28.0 9.8 32 10.2 CALM 0 6 0 3 1012.9 1012.0 0.0
03/08:00am 24.8 24.3 9.5 38 8.4 NE 2 6 1 3 1012.8 1011.9 0.0
03/07:30am 22.3 21.5 11.7 51 6.0 ENE 7 9 4 5 1012.5 1011.6 0.0
03/07:00am 19.1 18.8 12.6 66 3.7 NE 6 7 3 4 1012.3 1011.4 0.0
03/06:30am 15.5 15.7 11.7 78 2.1 NE 2 7 1 4 1012.2 1011.3 0.0
03/06:00am 14.3 14.5 10.5 78 2.0 CALM 0 0 0 0 1012.0 1011.1 0.0
03/05:30am 14.3 14.5 10.5 78 2.0 CALM 0 0 0 0 1011.5 1010.6 0.0
03/05:00am 14.4 14.6 10.4 77 2.1 CALM 0 0 0 0 1011.1 1010.2 0.0
03/04:30am 14.9 15.0 10.3 74 2.4 CALM 0 0 0 0 1010.9 1010.0 0.0
03/04:00am 15.4 15.2 10.4 72 2.7 S 2 7 1 4 1011.0 1010.1 0.0
03/03:30am 15.6 15.9 10.8 73 2.6 CALM 0 0 0 0 1010.8 1009.9 0.0
03/03:00am 16.0 15.2 11.0 72 2.7 NE 6 9 3 5 1011.1 1010.2 0.0
03/02:30am 15.1 14.0 10.1 72 2.6 NE 6 7 3 4 1011.4 1010.5 0.0
03/02:00am 15.6 14.5 9.9 69 3.0 SE 6 7 3 4 1011.5 1010.6 0.0
03/01:30am 16.2 16.3 10.1 67 3.2 CALM 0 0 0 0 1011.7 1010.8 0.0
03/01:00am 16.5 16.5 9.9 65 3.5 CALM 0 0 0 0 1011.8 1010.9 0.0
03/12:30am 17.3 16.6 10.0 62 3.9 SSE 4 7 2 4 1011.7 1010.8 0.0
03/12:00am 17.8 16.5 9.9 60 4.2 NE 7 11 4 6 1011.8 1010.9 0.0
 
Date/Time
EDT
Temp
°C
App
Temp
°C
Dew
Point
°C
Rel
Hum
%
Delta-T
°C
Wind Press
QNH
hPa
Press
MSL
hPa
Rain since
9am
mm
Dir  Spd
km/h
Gust
km/h
Spd
kts
Gust
kts
02/11:30pm 19.3 19.5 10.6 57 4.7 CALM 0 0 0 0 1011.7 1010.8 0.0
02/11:00pm 19.4 19.4 9.9 54 5.1 CALM 0 0 0 0 1011.5 1010.6 0.0
02/10:30pm 20.1 18.8 9.9 52 5.5 NE 7 7 4 4 1011.5 1010.6 0.0
02/10:00pm 20.6 19.1 8.3 45 6.5 ESE 6 7 3 4 1011.8 1010.9 0.0
02/09:30pm 23.0 21.4 8.7 40 7.7 ENE 7 9 4 5 1011.9 1011.0 0.0
02/09:00pm 22.9 20.9 8.6 40 7.7 N 9 11 5 6 1011.6 1010.7 0.0
02/08:30pm 26.6 25.1 6.6 28 10.6 SW 4 9 2 5 1011.4 1010.5 0.0
02/08:00pm 28.1 25.8 5.6 24 11.8 WSW 7 9 4 5 1011.4 1010.5 0.0
02/07:30pm 29.5 25.5 4.9 21 12.8 WNW 15 20 8 11 1011.6 1010.7 0.0
02/07:00pm 30.1 25.6 4.0 19 13.5 WNW 17 24 9 13 1011.5 1010.6 0.0
02/06:30pm 30.0 25.9 4.6 20 13.2 W 15 20 8 11 1011.3 1010.4 0.0
02/06:00pm 30.4 26.4 4.9 20 13.4 W 15 19 8 10 1011.2 1010.3 0.0
02/05:30pm 30.8 26.5 5.3 20 13.5 WSW 17 20 9 11 1011.1 1010.2 0.0
02/05:00pm 30.5 26.0 4.3 19 13.6 WNW 17 26 9 14 1011.0 1010.1 0.0
02/04:30pm 30.5 24.5 3.5 18 13.9 W 24 35 13 19 1011.7 1010.8 0.0
02/04:00pm 31.0 26.4 3.9 18 14.1 W 17 22 9 12 1011.4 1010.5 0.0
02/03:30pm 31.1 26.6 4.0 18 14.1 WSW 17 26 9 14 1011.1 1010.2 0.0
02/03:00pm 31.4 26.7 3.4 17 14.4 WSW 17 28 9 15 1011.0 1010.1 0.0
02/02:30pm 31.0 27.0 3.1 17 14.3 WSW 13 17 7 9 1011.5 1010.6 0.0
02/02:00pm 31.2 26.5 3.3 17 14.3 SW 17 24 9 13 1011.5 1010.6 0.0
02/01:30pm 31.3 26.1 3.4 17 14.4 SW 20 26 11 14 1011.7 1010.8 0.0
02/01:00pm 31.3 26.3 3.4 17 14.4 SW 19 28 10 15 1011.8 1010.9 0.0
02/12:30pm 32.1 26.8 3.1 16 14.9 WSW 20 30 11 16 1011.5 1010.6 0.0
02/12:00pm 32.0 28.2 3.9 17 14.7 W 13 20 7 11 1011.3 1010.4 0.0
02/11:30am 31.1 27.2 3.2 17 14.3 SW 13 20 7 11 1011.4 1010.5 0.0
02/11:00am 30.4 26.6 1.8 16 14.3 SSW 11 20 6 11 1011.4 1010.5 0.0
02/10:30am 29.9 26.4 1.4 16 14.1 SSW 9 13 5 7 1011.5 1010.6 0.0
02/10:00am 29.2 25.6 0.8 16 13.8 SSE 9 13 5 7 1011.0 1010.1 0.0
02/09:30am 28.2 25.2 1.7 18 13.0 SSE 7 11 4 6 1011.0 1010.1 0.0
02/09:00am 25.9 24.0 6.5 29 10.2 SW 6 9 3 5 1010.9 1010.0 0.0
02/08:30am 24.0 22.0 6.3 32 9.2 WNW 6 7 3 4 1010.6 1009.7 0.0
02/08:00am 21.9 19.0 8.1 41 7.3 NNE 13 17 7 9 1009.7 1008.8 0.0
02/07:30am 20.4 18.1 9.0 48 6.1 NE 11 15 6 8 1009.3 1008.3 0.0
02/07:00am 19.4 18.0 9.6 53 5.3 ENE 7 11 4 6 1009.2 1008.2 0.0
02/06:30am 16.2 15.2 10.3 68 3.1 N 6 7 3 4 1009.3 1008.3 0.0
02/06:00am 15.5 15.3 9.0 65 3.4 CALM 0 0 0 0 1009.0 1008.0 0.0
02/05:30am 16.0 14.9 9.9 67 3.2 ESE 6 9 3 5 1008.4 1007.5 0.0
02/05:00am 15.5 15.1 9.6 68 3.1 ESE 2 7 1 4 1008.2 1007.3 0.0
02/04:30am 15.1 14.5 9.0 67 3.1 ESE 2 6 1 3 1008.1 1007.2 0.0
02/04:00am 15.8 15.5 8.8 63 3.6 CALM 0 0 0 0 1008.1 1007.2 0.0
02/03:30am 16.1 15.8 8.8 62 3.8 CALM 0 0 0 0 1007.9 1007.0 0.0
02/03:00am 16.9 16.6 8.8 59 4.2 CALM 0 0 0 0 1007.9 1007.0 0.0
02/02:30am 17.0 16.3 7.1 52 5.0 CALM 0 0 0 0 1008.0 1007.1 0.0
02/02:00am 16.9 16.6 8.8 59 4.2 CALM 0 0 0 0 1008.2 1007.3 0.0
02/01:30am 18.0 16.5 8.6 54 4.9 NNE 6 7 3 4 1008.3 1007.4 0.0
02/01:00am 18.5 18.3 9.0 54 5.0 CALM 0 0 0 0 1008.4 1007.5 0.0
02/12:30am 20.0 19.8 9.0 49 5.8 CALM 0 0 0 0 1008.4 1007.5 0.0
02/12:00am 20.3 19.1 8.0 45 6.4 WNW 4 7 2 4 1008.5 1007.6 0.0
 
Date/Time
EDT
Temp
°C
App
Temp
°C
Dew
Point
°C
Rel
Hum
%
Delta-T
°C
Wind Press
QNH
hPa
Press
MSL
hPa
Rain since
9am
mm
Dir  Spd
km/h
Gust
km/h
Spd
kts
Gust
kts
01/11:30pm 21.5 19.6 6.6 38 7.6 W 6 7 3 4 1008.5 1007.6 0.0
01/11:00pm 20.9 18.8 6.8 40 7.2 WNW 7 9 4 5 1008.4 1007.5 0.0
01/10:30pm 20.8 18.9 6.7 40 7.2 W 6 7 3 4 1008.2 1007.3 0.0
01/10:00pm 22.6 20.5 6.0 34 8.5 W 6 7 3 4 1008.2 1007.3 0.0
01/09:30pm 22.0 19.7 4.6 32 8.6 SSW 6 7 3 4 1007.7 1006.8 0.0
01/09:00pm 23.6 20.6 4.0 28 9.7 SW 9 9 5 5 1007.4 1006.5 0.0
01/08:30pm 24.8 21.2 2.9 24 10.7 SW 11 13 6 7 1007.1 1006.2 0.0
01/08:00pm 27.6 23.4 1.9 19 12.6 WSW 13 17 7 9 1006.8 1005.9 0.0
01/07:30pm 29.7 24.2 0.3 15 14.2 WSW 19 24 10 13 1006.4 1005.5 0.0
01/07:00pm 30.7 24.2 0.2 14 14.9 WSW 24 32 13 17 1006.0 1005.1 0.0
01/06:30pm 31.1 25.2 1.4 15 14.8 WSW 22 32 12 17 1005.6 1004.7 0.0
01/06:00pm 32.0 26.4 1.2 14 15.4 SW 20 33 11 18 1005.4 1004.5 0.0
01/05:30pm 33.1 27.8 3.0 15 15.6 SW 20 30 11 16 1005.3 1004.4 0.0
01/05:00pm 33.3 28.6 3.2 15 15.7 SW 17 28 9 15 1005.3 1004.4 0.0
01/04:30pm 32.4 27.6 2.5 15 15.3 S 17 28 9 15 1005.4 1004.5 0.0
01/04:00pm 33.3 26.9 3.2 15 15.7 W 26 35 14 19 1005.6 1004.7 0.0
01/03:30pm 33.6 28.0 3.4 15 15.8 WSW 22 37 12 20 1005.8 1004.9 0.0
01/03:00pm 33.3 27.3 3.2 15 15.7 WSW 24 37 13 20 1005.8 1004.9 0.0
01/02:30pm 33.2 27.7 4.0 16 15.3 WSW 22 32 12 17 1006.2 1005.3 0.0
01/02:00pm 32.7 26.5 4.5 17 14.9 WSW 26 41 14 22 1006.5 1005.6 0.0
01/01:30pm 32.2 27.1 3.2 16 15.0 WSW 19 41 10 22 1006.6 1005.7 0.0
01/01:00pm 31.4 25.8 3.4 17 14.5 WNW 22 35 12 19 1006.9 1006.0 0.0
01/12:30pm 31.8 27.6 3.8 17 14.6 W 15 26 8 14 1007.2 1006.3 0.0
01/12:00pm 30.9 26.8 4.6 19 13.8 WSW 15 26 8 14 1007.3 1006.4 0.0
01/11:30am 30.0 26.7 4.6 20 13.2 SSW 11 24 6 13 1007.5 1006.6 0.0
01/11:00am 29.6 26.9 5.6 22 12.7 NW 9 13 5 7 1007.5 1006.6 0.0
01/10:30am 28.6 25.3 4.8 22 12.3 W 11 15 6 8 1007.6 1006.9 0.0
01/10:00am 27.6 25.8 5.2 24 11.7 SSW 4 9 2 5 1007.7 1007.0 0.0
01/09:30am 26.9 25.0 6.9 28 10.7 E 6 11 3 6 1007.9 1007.2 0.0
01/09:00am 25.4 24.7 8.4 34 9.2 SW 2 7 1 4 1008.1 1007.4 0.0

Other Formats:

Comma delimited format used in spreadsheet applications
http://www.bom.gov.au/fwo/IDN60801/IDN60801.95708.axf

JavaScript Object Notation format (JSON) in row-major order
http://www.bom.gov.au/fwo/IDN60801/IDN60801.95708.json